Time;durP1;ratioP1;P1;durP2;ratioP2;P2;SDS_P1;SDS_P2;PMS_P1;PMS_P2;Temp;Humidity;BMP_temperature;BMP_pressure;BME280_temperature;BME280_humidity;BME280_pressure;Samples;Min_cycle;Max_cycle;Signal;HPM_P1;HPM_P2
2023/04/07 00:00:54;;;;;;;29.77;20.88;;;7.10;99.90;;;;;;5056861;28;20474;-80
2023/04/07 00:03:20;;;;;;;28.45;19.73;;;7.10;99.90;;;;;;5038333;28;20053;-80
2023/04/07 00:05:46;;;;;;;30.17;19.85;;;7.10;99.90;;;;;;5018459;28;20041;-80
2023/04/07 00:08:12;;;;;;;30.70;21.15;;;7.10;99.90;;;;;;5055480;28;20174;-79
2023/04/07 00:10:38;;;;;;;31.73;20.73;;;7.10;99.90;;;;;;5046740;28;20361;-80
2023/04/07 00:13:04;;;;;;;29.10;20.88;;;7.10;99.90;;;;;;5026321;28;20067;-81
2023/04/07 00:15:30;;;;;;;28.40;20.13;;;7.10;99.90;;;;;;5029323;28;20809;-80
2023/04/07 00:17:55;;;;;;;27.35;19.90;;;7.10;99.90;;;;;;5036631;28;20064;-80
2023/04/07 00:20:22;;;;;;;28.92;20.50;;;7.10;99.90;;;;;;5039467;28;20053;-80
2023/04/07 00:22:47;;;;;;;31.17;21.33;;;7.10;99.90;;;;;;5010319;28;20048;-80
2023/04/07 00:25:13;;;;;;;30.35;21.83;;;7.10;99.90;;;;;;5031418;28;20049;-81
2023/04/07 00:27:39;;;;;;;30.60;19.98;;;7.10;99.90;;;;;;5012095;28;20131;-79
2023/04/07 00:30:05;;;;;;;30.30;21.27;;;7.10;99.90;;;;;;5042593;28;20045;-79
2023/04/07 00:32:31;;;;;;;31.00;21.00;;;7.10;99.90;;;;;;5054274;28;20040;-80
2023/04/07 00:34:57;;;;;;;30.40;21.75;;;7.10;99.90;;;;;;5042799;28;20029;-80
2023/04/07 00:37:24;;;;;;;31.48;20.85;;;7.10;99.90;;;;;;5055310;28;20175;-80
2023/04/07 00:39:50;;;;;;;31.67;22.63;;;7.10;99.90;;;;;;5038717;28;20402;-79
2023/04/07 00:42:17;;;;;;;33.15;22.90;;;7.10;99.90;;;;;;5045365;28;20060;-79
2023/04/07 00:44:43;;;;;;;33.17;22.77;;;7.10;99.90;;;;;;5061009;28;20048;-79
2023/04/07 00:47:09;;;;;;;35.00;22.83;;;7.50;99.90;;;;;;5066061;28;20043;-79
2023/04/07 00:49:37;;;;;;;31.40;22.35;;;7.50;99.90;;;;;;5042897;28;20095;-80
2023/04/07 00:52:03;;;;;;;30.52;21.60;;;7.10;99.90;;;;;;5048007;28;20049;-79
2023/04/07 00:54:30;;;;;;;31.55;22.45;;;7.10;99.90;;;;;;5035664;28;20037;-79
2023/04/07 00:56:56;;;;;;;32.28;23.73;;;7.10;99.90;;;;;;5042876;28;20123;-80
2023/04/07 00:59:22;;;;;;;31.17;21.80;;;7.10;99.90;;;;;;5045267;28;20469;-79
2023/04/07 01:02:14;;;;;;;28.92;20.67;;;7.10;99.90;;;;;;5043505;28;20037;-79
2023/04/07 01:04:46;;;;;;;30.83;22.88;;;7.30;99.90;;;;;;5041733;28;20345;-79
2023/04/07 01:07:17;;;;;;;;;;;7.10;99.90;;;;;;5052395;28;20040;-78
2023/04/07 01:09:56;;;;;;;34.35;22.52;;;7.10;99.90;;;;;;5035992;28;19928;-79
2023/04/07 01:12:51;;;;;;;33.30;21.98;;;7.40;99.90;;;;;;5025991;28;20080;-79
2023/04/07 01:15:21;;;;;;;33.72;23.63;;;7.10;99.90;;;;;;5062624;28;20405;-79
2023/04/07 01:17:58;;;;;;;35.57;24.63;;;7.10;99.90;;;;;;5060790;28;20087;-79
2023/04/07 01:20:27;;;;;;;35.13;22.77;;;7.10;99.90;;;;;;5040608;28;20393;-79
2023/04/07 01:22:59;;;;;;;36.10;22.85;;;7.10;99.90;;;;;;5040784;28;20146;-79
2023/04/07 01:25:45;;;;;;;31.67;22.52;;;7.40;99.90;;;;;;5042277;28;20054;-79
2023/04/07 01:28:36;;;;;;;31.63;22.80;;;7.10;99.90;;;;;;5034395;28;20049;-79
2023/04/07 01:31:05;;;;;;;34.47;23.52;;;7.10;99.90;;;;;;5024483;28;20149;-79
2023/04/07 01:33:33;;;;;;;36.22;24.80;;;7.10;99.90;;;;;;5037354;28;20516;-79
2023/04/07 01:36:02;;;;;;;35.38;23.77;;;7.10;99.90;;;;;;5028058;28;20037;-79
2023/04/07 01:38:29;;;;;;;37.80;24.40;;;7.10;99.90;;;;;;5040714;28;20101;-79
2023/04/07 01:40:56;;;;;;;35.65;24.63;;;7.10;99.90;;;;;;5029126;28;20045;-79
2023/04/07 01:43:24;;;;;;;36.13;24.00;;;7.10;99.90;;;;;;5042989;28;20049;-79
2023/04/07 01:45:51;;;;;;;35.17;23.15;;;7.10;99.90;;;;;;5026398;28;20049;-80
2023/04/07 01:48:17;;;;;;;32.80;22.63;;;7.10;99.90;;;;;;5042459;28;20131;-79
2023/04/07 01:50:45;;;;;;;33.42;23.50;;;7.10;99.90;;;;;;5039328;28;20167;-78
2023/04/07 01:53:11;;;;;;;32.50;23.60;;;7.10;99.90;;;;;;5022772;28;20040;-80
2023/04/07 01:55:37;;;;;;;32.25;22.55;;;7.10;99.90;;;;;;5010117;28;20048;-79
2023/04/07 01:58:05;;;;;;;33.15;22.63;;;7.10;99.90;;;;;;5045299;28;20045;-80
2023/04/07 02:00:31;;;;;;;32.83;23.17;;;7.10;99.90;;;;;;5026048;28;20055;-80
2023/04/07 02:03:11;;;;;;;36.88;22.70;;;7.20;99.90;;;;;;5043908;28;20446;-80
2023/04/07 02:05:38;;;;;;;33.78;23.13;;;7.10;99.90;;;;;;5042673;28;20063;-80
2023/04/07 02:08:07;;;;;;;31.60;23.20;;;7.10;99.90;;;;;;5030882;28;20155;-80
2023/04/07 02:10:37;;;;;;;31.80;22.98;;;7.10;99.90;;;;;;5038340;28;20630;-80
2023/04/07 02:13:05;;;;;;;31.80;22.67;;;7.10;99.90;;;;;;5045304;28;20041;-80
2023/04/07 02:15:32;;;;;;;29.85;21.55;;;7.10;99.90;;;;;;5050199;28;20041;-80
2023/04/07 02:18:00;;;;;;;31.90;21.75;;;7.20;99.90;;;;;;5050279;28;20044;-80
2023/04/07 02:20:27;;;;;;;32.22;22.23;;;7.10;99.90;;;;;;5042198;28;20049;-80
2023/04/07 02:22:54;;;;;;;31.58;21.80;;;7.10;99.90;;;;;;5019865;28;20045;-79
2023/04/07 02:25:28;;;;;;;32.50;23.00;;;7.10;99.90;;;;;;5040016;28;20551;-79
2023/04/07 02:27:55;;;;;;;30.00;20.58;;;7.10;99.90;;;;;;5045145;28;20123;-80
2023/04/07 02:30:21;;;;;;;28.90;21.38;;;7.10;99.90;;;;;;5015152;28;20410;-79
2023/04/07 02:32:47;;;;;;;31.50;21.63;;;7.10;99.90;;;;;;5039555;28;20041;-79
2023/04/07 02:35:15;;;;;;;30.10;20.10;;;7.10;99.90;;;;;;5035409;28;20503;-79
2023/04/07 02:37:44;;;;;;;28.25;21.40;;;7.10;99.90;;;;;;5036542;28;20045;-80
2023/04/07 02:40:10;;;;;;;30.65;20.75;;;7.10;99.90;;;;;;5022888;28;20049;-79
2023/04/07 02:42:36;;;;;;;28.05;20.67;;;7.10;99.90;;;;;;5023627;28;20059;-79
2023/04/07 02:45:03;;;;;;;28.83;20.30;;;7.10;99.90;;;;;;5024267;28;20028;-79
2023/04/07 02:47:28;;;;;;;30.20;20.90;;;7.10;99.90;;;;;;5008858;28;20068;-80
2023/04/07 02:49:54;;;;;;;27.85;20.60;;;7.10;99.90;;;;;;5040855;28;20048;-79
2023/04/07 02:52:20;;;;;;;28.00;20.27;;;7.50;99.90;;;;;;5037302;28;20049;-80
2023/04/07 02:54:46;;;;;;;28.27;20.45;;;7.10;99.90;;;;;;5035157;28;20106;-80
2023/04/07 02:57:12;;;;;;;29.35;21.00;;;7.10;99.90;;;;;;5026275;28;20500;-79
2023/04/07 02:59:39;;;;;;;26.42;19.52;;;7.10;99.90;;;;;;5039986;28;20043;-79
2023/04/07 03:02:04;;;;;;;26.92;19.50;;;7.10;99.90;;;;;;5040498;28;20116;-80
2023/04/07 03:04:30;;;;;;;28.13;20.27;;;7.10;99.90;;;;;;5037966;28;20457;-80
2023/04/07 03:06:56;;;;;;;27.15;19.63;;;7.30;99.90;;;;;;5026152;28;20047;-79
2023/04/07 03:09:22;;;;;;;31.73;21.52;;;7.10;99.90;;;;;;5034297;28;20053;-80
2023/04/07 03:11:48;;;;;;;26.75;19.75;;;7.10;99.90;;;;;;5022959;28;20037;-80
2023/04/07 03:14:15;;;;;;;27.20;19.30;;;7.20;99.90;;;;;;5025208;28;20130;-79
2023/04/07 03:16:41;;;;;;;27.45;20.05;;;7.10;99.90;;;;;;5040428;28;20078;-80
2023/04/07 03:19:08;;;;;;;28.17;20.55;;;7.10;99.90;;;;;;5043515;28;20033;-79
2023/04/07 03:21:35;;;;;;;28.63;20.08;;;7.10;99.90;;;;;;5038971;28;20549;-80
2023/04/07 03:24:00;;;;;;;29.85;21.05;;;7.10;99.90;;;;;;5015418;28;20142;-80
2023/04/07 03:26:26;;;;;;;31.83;20.65;;;7.20;99.90;;;;;;5033977;28;20072;-80
2023/04/07 03:28:52;;;;;;;29.08;21.67;;;7.10;99.90;;;;;;5030883;28;20040;-79
2023/04/07 03:31:17;;;;;;;29.52;21.50;;;7.10;99.90;;;;;;5041351;28;20123;-80
2023/04/07 03:33:43;;;;;;;29.15;20.90;;;7.10;99.90;;;;;;5043858;28;20082;-79
2023/04/07 03:36:09;;;;;;;29.55;21.80;;;7.10;99.90;;;;;;5041867;28;20051;-80
2023/04/07 03:38:35;;;;;;;30.73;21.52;;;7.10;99.90;;;;;;5035621;28;20080;-80
2023/04/07 03:41:01;;;;;;;29.60;21.48;;;7.30;99.90;;;;;;5042527;28;21075;-80
2023/04/07 03:43:27;;;;;;;27.40;19.95;;;7.10;99.90;;;;;;5050769;28;20493;-80
2023/04/07 03:45:53;;;;;;;28.98;21.02;;;7.10;99.90;;;;;;5056099;28;20045;-80
2023/04/07 03:48:18;;;;;;;30.25;21.48;;;7.10;99.90;;;;;;5025877;28;20456;-80
2023/04/07 03:50:45;;;;;;;29.17;20.83;;;7.10;99.90;;;;;;5044153;28;20041;-80
2023/04/07 03:53:14;;;;;;;30.63;22.00;;;7.10;99.90;;;;;;5046333;28;20041;-80
2023/04/07 03:55:40;;;;;;;28.77;21.05;;;7.40;99.90;;;;;;5040304;28;20490;-80
2023/04/07 03:58:06;;;;;;;29.13;21.20;;;7.10;99.90;;;;;;5040626;28;20036;-80
2023/04/07 04:00:32;;;;;;;30.50;21.70;;;7.10;99.90;;;;;;5039461;28;20029;-80
2023/04/07 04:02:59;;;;;;;29.02;21.35;;;7.10;99.90;;;;;;5042265;28;20582;-79
2023/04/07 04:05:24;;;;;;;31.38;22.60;;;7.10;99.90;;;;;;5031427;28;20045;-79
2023/04/07 04:07:51;;;;;;;32.80;21.52;;;7.10;99.90;;;;;;5026346;28;20048;-79
2023/04/07 04:10:17;;;;;;;30.13;22.30;;;7.00;99.90;;;;;;5036857;28;20489;-78
2023/04/07 04:12:45;;;;;;;29.83;21.17;;;7.10;99.90;;;;;;5013551;28;20045;-80
2023/04/07 04:15:13;;;;;;;30.88;22.17;;;7.10;99.90;;;;;;5036981;28;20121;-80
2023/04/07 04:17:40;;;;;;;32.78;22.05;;;7.10;99.90;;;;;;5049317;28;20712;-81
2023/04/07 04:20:06;;;;;;;31.33;22.55;;;7.00;99.90;;;;;;5038240;28;20076;-79
2023/04/07 04:22:32;;;;;;;31.52;22.27;;;7.00;99.90;;;;;;5047047;28;20045;-79
2023/04/07 04:24:59;;;;;;;30.58;21.70;;;7.30;99.90;;;;;;5040033;28;20048;-80
2023/04/07 04:27:24;;;;;;;29.60;20.92;;;7.00;99.90;;;;;;5041512;28;20037;-80
2023/04/07 04:29:50;;;;;;;28.20;21.27;;;7.00;99.90;;;;;;5036732;28;20058;-80
2023/04/07 04:32:16;;;;;;;29.10;20.75;;;7.10;99.90;;;;;;5043731;28;20052;-80
2023/04/07 04:34:42;;;;;;;28.05;21.25;;;7.00;99.90;;;;;;5040610;28;20048;-80
2023/04/07 04:37:08;;;;;;;28.58;21.10;;;7.00;99.90;;;;;;5025652;28;20097;-80
2023/04/07 04:39:34;;;;;;;31.88;22.33;;;7.00;99.90;;;;;;5010633;28;20053;-81
2023/04/07 04:42:00;;;;;;;28.50;21.23;;;7.00;99.90;;;;;;5040621;28;20048;-80
2023/04/07 04:44:26;;;;;;;29.73;20.58;;;7.00;99.90;;;;;;5038329;28;20638;-81
2023/04/07 04:46:52;;;;;;;27.75;20.30;;;7.00;99.90;;;;;;5011201;28;20037;-81
2023/04/07 04:49:18;;;;;;;28.40;20.38;;;7.00;99.90;;;;;;5032904;28;20037;-80
2023/04/07 04:51:44;;;;;;;31.38;21.27;;;7.00;99.90;;;;;;5042599;28;20052;-81
2023/04/07 04:54:12;;;;;;;27.27;19.83;;;7.00;99.90;;;;;;5037914;28;20040;-80
2023/04/07 04:56:37;;;;;;;28.42;20.95;;;6.60;99.90;;;;;;5031253;28;20048;-79
2023/04/07 04:59:04;;;;;;;28.13;19.80;;;7.00;99.90;;;;;;5026794;28;20502;-80
2023/04/07 05:01:29;;;;;;;30.60;21.15;;;7.00;99.90;;;;;;5046508;28;20037;-78
2023/04/07 05:03:55;;;;;;;29.90;20.52;;;7.30;99.90;;;;;;5031642;28;20634;-80
2023/04/07 05:06:21;;;;;;;30.13;21.48;;;7.10;99.90;;;;;;5022932;28;20509;-80
2023/04/07 05:08:47;;;;;;;30.30;20.58;;;7.00;99.90;;;;;;5042932;28;20032;-81
2023/04/07 05:11:13;;;;;;;28.35;20.88;;;7.00;99.90;;;;;;5038644;28;20124;-82
2023/04/07 05:13:39;;;;;;;31.08;22.58;;;7.00;99.90;;;;;;5025218;28;20026;-82
2023/04/07 05:16:05;;;;;;;29.98;21.88;;;6.90;99.90;;;;;;5047416;28;20555;-81
2023/04/07 05:18:31;;;;;;;31.83;22.55;;;7.00;99.90;;;;;;5023645;28;20040;-81
2023/04/07 05:20:57;;;;;;;33.03;22.48;;;7.30;99.90;;;;;;5027894;28;20442;-82
2023/04/07 05:23:22;;;;;;;33.97;22.33;;;7.00;99.90;;;;;;5043309;28;20045;-81
2023/04/07 05:25:48;;;;;;;34.78;24.13;;;7.00;99.90;;;;;;5029755;28;20044;-81
2023/04/07 05:28:14;;;;;;;36.25;23.00;;;7.00;99.90;;;;;;5037658;28;20079;-81
2023/04/07 05:30:43;;;;;;;34.33;22.05;;;7.10;99.90;;;;;;5055398;28;20146;-80
2023/04/07 05:33:10;;;;;;;33.38;22.42;;;7.00;99.90;;;;;;5037914;28;20037;-81
2023/04/07 05:35:35;;;;;;;37.15;22.48;;;6.90;99.90;;;;;;5039575;28;20044;-82
2023/04/07 05:38:01;;;;;;;37.33;23.73;;;7.00;99.90;;;;;;5018182;28;20494;-82
2023/04/07 05:40:29;;;;;;;35.28;22.98;;;7.00;99.90;;;;;;5024500;28;20129;-82
2023/04/07 05:42:55;;;;;;;32.65;22.98;;;7.00;99.90;;;;;;5010786;28;20514;-82
2023/04/07 05:45:21;;;;;;;32.88;21.88;;;6.90;99.90;;;;;;5032230;28;20082;-82
2023/04/07 05:47:48;;;;;;;33.40;21.60;;;7.40;99.90;;;;;;5016938;28;20044;-80
2023/04/07 05:50:15;;;;;;;32.80;22.05;;;7.00;99.90;;;;;;5034891;28;20047;-81
2023/04/07 05:52:41;;;;;;;33.88;22.73;;;6.90;99.90;;;;;;5028564;28;20116;-81
2023/04/07 05:55:07;;;;;;;37.40;22.45;;;6.90;99.90;;;;;;5046388;28;20037;-82
2023/04/07 05:57:33;;;;;;;37.03;22.77;;;6.90;99.90;;;;;;5032682;28;20053;-81
2023/04/07 05:59:59;;;;;;;36.10;22.10;;;6.90;99.90;;;;;;5041073;28;20049;-82
2023/04/07 06:02:25;;;;;;;36.15;22.60;;;6.90;99.90;;;;;;5026497;28;20413;-81
2023/04/07 06:04:51;;;;;;;32.92;20.63;;;6.90;99.90;;;;;;5049221;28;20402;-80
2023/04/07 06:07:16;;;;;;;31.73;21.55;;;6.90;99.90;;;;;;5045000;28;20060;-81
2023/04/07 06:09:42;;;;;;;34.55;21.42;;;6.90;99.90;;;;;;5021394;28;20044;-82
2023/04/07 06:12:09;;;;;;;34.42;21.65;;;6.90;99.90;;;;;;5034029;28;20044;-82
2023/04/07 06:14:35;;;;;;;31.17;21.67;;;6.90;99.90;;;;;;5033919;28;20289;-82
2023/04/07 06:17:00;;;;;;;30.35;19.88;;;6.90;99.90;;;;;;5012077;28;20045;-83
2023/04/07 06:19:26;;;;;;;31.60;20.45;;;6.90;99.90;;;;;;5050928;28;20040;-82
2023/04/07 06:21:52;;;;;;;30.58;20.70;;;6.90;99.90;;;;;;5053528;28;20141;-80
2023/04/07 06:24:21;;;;;;;29.73;20.25;;;6.90;99.90;;;;;;5043705;28;20037;-82
2023/04/07 06:26:47;;;;;;;31.88;21.02;;;6.90;99.90;;;;;;5025347;28;20043;-81
2023/04/07 06:29:13;;;;;;;30.85;20.65;;;6.90;99.90;;;;;;5040296;28;20218;-82
2023/04/07 06:31:39;;;;;;;32.75;20.35;;;7.00;99.90;;;;;;5016228;28;20118;-81
2023/04/07 06:34:05;;;;;;;28.98;19.65;;;7.00;99.90;;;;;;5016803;28;20497;-81
2023/04/07 06:36:31;;;;;;;30.58;20.08;;;7.00;99.90;;;;;;5042146;28;20053;-81
2023/04/07 06:38:57;;;;;;;30.40;20.27;;;7.00;99.90;;;;;;5032670;28;20040;-82
2023/04/07 06:41:23;;;;;;;32.13;21.05;;;7.80;99.90;;;;;;5021903;28;20569;-80
2023/04/07 06:43:52;;;;;;;33.22;21.40;;;7.00;99.90;;;;;;5055322;28;20045;-81
2023/04/07 06:46:18;;;;;;;32.72;20.98;;;7.00;99.90;;;;;;5052170;28;20048;-81
2023/04/07 06:48:45;;;;;;;31.02;19.92;;;7.10;99.90;;;;;;5030058;28;20036;-80
2023/04/07 06:51:11;;;;;;;30.88;20.40;;;7.10;99.90;;;;;;5057146;28;20048;-80
2023/04/07 06:53:37;;;;;;;30.30;20.50;;;7.10;99.90;;;;;;5034312;28;20325;-80
2023/04/07 06:56:10;;;;;;;29.25;19.98;;;7.10;99.90;;;;;;5052747;28;20032;-81
2023/04/07 06:58:36;;;;;;;28.33;20.15;;;7.10;99.90;;;;;;5048639;28;20059;-81
2023/04/07 07:01:03;;;;;;;30.83;20.40;;;7.10;99.90;;;;;;5038173;28;20573;-81
2023/04/07 07:03:30;;;;;;;31.08;20.70;;;7.10;99.90;;;;;;5043412;28;20440;-81
2023/04/07 07:05:59;;;;;;;30.08;20.05;;;7.10;99.90;;;;;;5052714;28;20040;-81
2023/04/07 07:08:26;;;;;;;29.67;20.23;;;7.20;99.90;;;;;;5047864;28;20052;-82
2023/04/07 07:10:52;;;;;;;30.23;20.17;;;7.20;99.90;;;;;;5013809;28;20048;-81
2023/04/07 07:13:22;;;;;;;28.38;20.15;;;7.20;99.90;;;;;;5033156;28;20033;-80
2023/04/07 07:15:48;;;;;;;30.52;20.10;;;7.20;99.90;;;;;;5043686;28;20075;-81
2023/04/07 07:18:14;;;;;;;29.95;19.60;;;7.20;99.90;;;;;;5055731;28;20059;-82
2023/04/07 07:20:40;;;;;;;28.70;19.23;;;7.20;99.90;;;;;;5051561;28;20045;-81
2023/04/07 07:23:05;;;;;;;27.88;19.40;;;7.30;99.90;;;;;;5049034;28;20044;-81
2023/04/07 07:25:31;;;;;;;27.05;19.38;;;7.30;99.90;;;;;;5029554;28;20068;-81
2023/04/07 07:27:57;;;;;;;29.45;19.80;;;7.30;99.90;;;;;;5031759;28;20127;-81
2023/04/07 07:30:23;;;;;;;28.63;20.30;;;7.30;99.90;;;;;;5018782;28;20110;-82
2023/04/07 07:32:50;;;;;;;29.77;19.58;;;7.40;99.90;;;;;;5032763;28;20091;-81
2023/04/07 07:35:15;;;;;;;28.73;19.15;;;7.40;99.90;;;;;;5031792;28;20048;-81
2023/04/07 07:37:43;;;;;;;28.13;19.05;;;7.40;99.90;;;;;;5011599;28;20547;-81
2023/04/07 07:40:09;;;;;;;27.25;19.23;;;7.40;99.90;;;;;;5039254;28;20045;-80
2023/04/07 07:42:36;;;;;;;27.27;18.70;;;7.50;99.90;;;;;;5028523;28;20550;-81
2023/04/07 07:45:02;;;;;;;29.25;19.52;;;7.50;99.90;;;;;;5034083;28;20106;-81
2023/04/07 07:47:28;;;;;;;28.30;19.70;;;7.50;99.90;;;;;;5019967;28;20056;-81
2023/04/07 07:49:57;;;;;;;28.15;18.38;;;7.50;99.90;;;;;;5030722;28;20041;-81
2023/04/07 07:52:23;;;;;;;28.58;19.67;;;7.60;99.90;;;;;;5033104;28;20048;-81
2023/04/07 07:54:50;;;;;;;27.50;18.15;;;7.60;99.90;;;;;;5039232;28;20676;-81
2023/04/07 07:57:15;;;;;;;24.55;17.35;;;7.60;99.90;;;;;;5040926;28;20053;-81
2023/04/07 07:59:42;;;;;;;27.83;18.00;;;7.60;99.90;;;;;;4994011;28;20504;-81
2023/04/07 08:02:08;;;;;;;25.35;18.30;;;7.70;99.90;;;;;;5010012;28;20049;-81
2023/04/07 08:04:35;;;;;;;25.88;16.60;;;7.70;99.90;;;;;;5011268;28;20053;-81
2023/04/07 08:07:00;;;;;;;24.60;16.40;;;7.70;99.90;;;;;;5010550;28;20048;-81
2023/04/07 08:09:26;;;;;;;25.88;17.15;;;7.80;99.90;;;;;;5026631;28;20745;-80
2023/04/07 08:11:52;;;;;;;24.95;17.63;;;7.80;99.90;;;;;;5029573;28;20081;-81
2023/04/07 08:14:18;;;;;;;24.65;17.15;;;8.30;99.90;;;;;;5009142;28;20041;-81
2023/04/07 08:16:44;;;;;;;24.40;16.52;;;7.90;99.90;;;;;;4999504;28;20061;-81
2023/04/07 08:19:11;;;;;;;21.50;15.60;;;8.00;99.90;;;;;;5016419;28;20041;-81
2023/04/07 08:21:36;;;;;;;21.00;14.68;;;8.10;99.90;;;;;;5029106;28;20076;-80
2023/04/07 08:24:03;;;;;;;21.50;15.60;;;8.00;99.90;;;;;;5019336;28;20077;-81
2023/04/07 08:26:29;;;;;;;19.25;14.38;;;8.00;99.90;;;;;;5017654;28;20045;-82
2023/04/07 08:28:55;;;;;;;19.13;14.05;;;8.00;99.90;;;;;;5028752;28;20094;-82
2023/04/07 08:31:20;;;;;;;19.13;13.68;;;8.00;99.90;;;;;;5009063;28;20053;-81
2023/04/07 08:33:46;;;;;;;21.67;14.68;;;7.90;99.90;;;;;;5007354;28;20045;-81
2023/04/07 08:36:12;;;;;;;19.02;13.30;;;8.00;99.90;;;;;;5038939;28;20045;-82
2023/04/07 08:38:38;;;;;;;20.42;13.45;;;8.00;99.90;;;;;;5014324;28;20048;-82
2023/04/07 08:41:09;;;;;;;16.83;12.38;;;8.00;99.90;;;;;;5033589;28;20128;-80
2023/04/07 08:43:36;;;;;;;20.05;13.40;;;8.20;99.90;;;;;;5031201;28;20146;-80
2023/04/07 08:46:02;;;;;;;18.52;12.85;;;8.00;99.90;;;;;;5019145;28;20038;-80
2023/04/07 08:48:33;;;;;;;21.02;13.45;;;8.00;99.90;;;;;;5020292;28;20207;-82
2023/04/07 08:51:05;;;;;;;18.02;12.50;;;8.10;99.90;;;;;;5015674;28;20053;-80
2023/04/07 08:54:17;;;;;;;17.80;12.85;;;8.10;99.90;;;;;;5031762;28;20392;-80
2023/04/07 08:56:43;;;;;;;17.42;11.75;;;8.00;99.90;;;;;;4998149;28;20056;-81
2023/04/07 08:59:11;;;;;;;17.35;12.25;;;8.00;99.90;;;;;;5033113;28;20075;-80
2023/04/07 09:01:38;;;;;;;18.67;13.07;;;8.10;99.90;;;;;;5030809;28;20037;-79
2023/04/07 09:04:06;;;;;;;19.92;12.13;;;8.10;99.90;;;;;;5027662;28;20448;-79
2023/04/07 09:06:33;;;;;;;15.65;11.07;;;8.10;99.90;;;;;;5012882;28;20569;-80
2023/04/07 09:09:02;;;;;;;18.83;12.70;;;8.10;99.90;;;;;;5032064;28;20116;-80
2023/04/07 09:11:29;;;;;;;16.50;11.85;;;8.20;99.90;;;;;;5015981;28;20059;-79
2023/04/07 09:13:55;;;;;;;15.20;10.82;;;8.20;99.90;;;;;;5014075;28;20041;-80
2023/04/07 09:16:24;;;;;;;14.32;9.88;;;8.30;99.90;;;;;;5019225;28;20033;-79
2023/04/07 09:18:52;;;;;;;15.15;10.45;;;8.70;99.90;;;;;;5034010;28;20757;-80
2023/04/07 09:21:21;;;;;;;15.05;10.73;;;8.30;99.90;;;;;;5014985;28;20056;-80
2023/04/07 09:23:46;;;;;;;16.20;11.40;;;8.40;99.90;;;;;;5020334;28;20407;-80
2023/04/07 09:26:24;;;;;;;16.10;11.18;;;8.40;99.90;;;;;;5016764;28;20056;-79
2023/04/07 09:28:56;;;;;;;17.42;11.55;;;8.50;99.90;;;;;;5018828;28;20442;-79
2023/04/07 09:31:25;;;;;;;16.35;12.13;;;8.60;99.90;;;;;;5020058;28;20045;-80
2023/04/07 09:33:52;;;;;;;16.75;11.90;;;8.70;99.90;;;;;;5019421;28;20057;-80
2023/04/07 09:36:18;;;;;;;17.40;11.93;;;8.70;99.90;;;;;;5019627;28;20582;-79
2023/04/07 09:38:45;;;;;;;16.60;11.00;;;8.80;99.90;;;;;;5013190;28;20056;-79
2023/04/07 09:41:13;;;;;;;17.60;11.30;;;8.90;99.90;;;;;;5025933;28;20057;-80
2023/04/07 09:43:45;;;;;;;17.90;12.07;;;8.90;99.90;;;;;;5018657;28;20059;-79
2023/04/07 09:46:15;;;;;;;15.70;10.68;;;8.90;99.90;;;;;;5010035;28;20045;-79
2023/04/07 09:48:43;;;;;;;18.48;11.95;;;8.90;99.90;;;;;;5012086;28;20114;-80
2023/04/07 09:51:12;;;;;;;15.73;11.63;;;9.00;99.90;;;;;;5029889;28;20629;-80
2023/04/07 09:53:41;;;;;;;14.65;10.20;;;9.00;99.90;;;;;;5015029;28;20045;-79
2023/04/07 09:56:09;;;;;;;16.35;11.75;;;9.00;99.90;;;;;;5012525;28;20041;-79
2023/04/07 09:58:39;;;;;;;17.17;10.50;;;9.00;99.90;;;;;;5018586;28;20037;-80
2023/04/07 10:01:08;;;;;;;17.00;11.55;;;9.10;99.90;;;;;;5028639;28;20468;-81
2023/04/07 10:03:34;;;;;;;14.57;10.60;;;9.10;99.90;;;;;;5025367;28;20123;-81
2023/04/07 10:06:01;;;;;;;15.30;11.68;;;9.40;99.90;;;;;;5013590;28;20063;-81
2023/04/07 10:08:27;;;;;;;17.05;11.88;;;9.10;99.90;;;;;;5013864;28;20086;-81
2023/04/07 10:10:56;;;;;;;15.75;11.73;;;9.10;99.90;;;;;;5006259;28;20440;-79
2023/04/07 10:13:24;;;;;;;14.23;10.13;;;9.10;99.90;;;;;;5019211;28;20045;-80
2023/04/07 10:15:51;;;;;;;16.08;10.68;;;9.10;99.90;;;;;;5022600;28;20106;-79
2023/04/07 10:18:19;;;;;;;15.15;10.07;;;9.10;99.90;;;;;;5009417;28;20041;-80
2023/04/07 10:20:48;;;;;;;15.85;10.85;;;9.10;99.90;;;;;;5031187;28;20043;-79
2023/04/07 10:23:47;;;;;;;16.17;11.30;;;9.20;99.90;;;;;;5042358;28;20037;-79
2023/04/07 10:26:18;;;;;;;16.13;11.52;;;9.20;99.90;;;;;;5033229;28;20052;-79
2023/04/07 10:28:48;;;;;;;16.20;10.82;;;9.20;99.90;;;;;;5021105;28;20449;-80
2023/04/07 10:31:14;;;;;;;16.40;11.13;;;9.10;99.90;;;;;;5052011;28;20072;-80
2023/04/07 10:33:55;;;;;;;15.57;11.15;;;9.20;99.90;;;;;;5014451;28;20067;-79
2023/04/07 10:36:21;;;;;;;15.30;11.27;;;9.20;99.90;;;;;;5031495;28;21166;-80
2023/04/07 10:39:06;;;;;;;18.15;12.88;;;9.20;99.90;;;;;;5032019;28;20114;-79
2023/04/07 10:41:33;;;;;;;16.20;12.25;;;9.20;99.90;;;;;;5041961;28;20053;-79
2023/04/07 10:43:59;;;;;;;17.30;12.30;;;9.20;99.90;;;;;;5015524;28;20397;-79
2023/04/07 10:46:45;;;;;;;18.17;12.63;;;9.20;99.90;;;;;;5042696;28;20045;-79
2023/04/07 10:49:12;;;;;;;16.55;11.93;;;9.30;99.90;;;;;;5026321;28;20060;-79
2023/04/07 10:51:38;;;;;;;17.85;11.55;;;9.30;99.90;;;;;;5033655;28;20267;-79
2023/04/07 10:54:26;;;;;;;14.52;10.55;;;9.30;99.90;;;;;;5033986;28;20061;-79
2023/04/07 10:57:07;;;;;;;15.07;11.00;;;9.40;99.90;;;;;;5031496;28;20098;-79
2023/04/07 10:59:33;;;;;;;16.25;10.30;;;9.40;99.90;;;;;;5033866;28;20593;-79
2023/04/07 11:02:15;;;;;;;15.00;10.82;;;9.40;99.90;;;;;;5020185;28;20033;-79
2023/04/07 11:04:45;;;;;;;13.32;9.38;;;9.50;99.90;;;;;;5028338;28;20052;-79
2023/04/07 11:07:13;;;;;;;13.18;9.20;;;9.50;99.90;;;;;;5033970;28;21043;-79
2023/04/07 11:09:42;;;;;;;11.43;8.05;;;9.50;99.90;;;;;;5037952;28;20045;-79
2023/04/07 11:12:21;;;;;;;13.20;8.90;;;9.60;99.90;;;;;;5037234;28;20040;-79
2023/04/07 11:14:46;;;;;;;12.52;8.32;;;9.60;99.90;;;;;;5031197;28;20041;-80
2023/04/07 11:17:17;;;;;;;13.50;8.63;;;9.60;99.90;;;;;;5049227;28;20098;-80
2023/04/07 11:19:52;;;;;;;12.52;8.85;;;9.90;99.90;;;;;;5033183;28;20587;-78
2023/04/07 11:22:18;;;;;;;12.45;8.98;;;9.70;99.90;;;;;;5038736;28;20155;-79
2023/04/07 11:24:47;;;;;;;13.10;8.95;;;9.70;99.90;;;;;;5032990;28;20123;-79
2023/04/07 11:27:14;;;;;;;13.15;9.15;;;9.70;99.90;;;;;;5043641;28;20049;-80
2023/04/07 11:29:40;;;;;;;14.27;8.40;;;9.80;99.90;;;;;;5039661;28;20041;-79
2023/04/07 11:32:05;;;;;;;13.48;9.70;;;9.70;99.90;;;;;;5018826;28;20036;-79
2023/04/07 11:34:33;;;;;;;12.05;8.30;;;9.80;99.90;;;;;;5046335;28;20041;-79
2023/04/07 11:37:19;;;;;;;15.35;8.95;;;9.80;99.90;;;;;;5038043;28;20115;-80
2023/04/07 11:39:52;;;;;;;15.98;10.13;;;9.80;99.90;;;;;;5037111;28;20063;-80
2023/04/07 11:42:41;;;;;;;14.40;10.07;;;9.80;99.90;;;;;;5034898;28;20421;-78
2023/04/07 11:45:20;;;;;;;14.02;9.65;;;9.80;99.90;;;;;;5048372;28;20414;-79
2023/04/07 11:47:46;;;;;;;14.85;9.98;;;9.90;99.90;;;;;;5034127;28;20448;-80
2023/04/07 11:50:12;;;;;;;14.48;10.25;;;9.90;99.90;;;;;;5028674;28;20049;-79
2023/04/07 11:52:45;;;;;;;13.98;9.85;;;10.00;99.90;;;;;;5042854;28;20048;-78
2023/04/07 11:55:25;;;;;;;14.07;9.85;;;10.00;99.90;;;;;;5049802;28;20604;-80
2023/04/07 11:57:52;;;;;;;14.40;10.20;;;10.00;99.90;;;;;;5052923;28;20447;-79
2023/04/07 12:00:21;;;;;;;13.63;9.63;;;10.10;99.90;;;;;;5054933;28;20084;-78
2023/04/07 12:02:47;;;;;;;15.77;10.48;;;10.10;99.90;;;;;;5047383;28;20044;-80
2023/04/07 12:05:13;;;;;;;15.57;9.80;;;10.10;99.90;;;;;;5021125;28;20041;-79
2023/04/07 12:07:40;;;;;;;13.98;9.77;;;10.10;99.90;;;;;;5049517;28;20040;-79
2023/04/07 12:10:24;;;;;;;15.25;9.82;;;10.10;99.90;;;;;;5041644;28;20405;-79
2023/04/07 12:12:50;;;;;;;14.10;10.10;;;10.20;99.90;;;;;;5033817;28;20045;-81
2023/04/07 12:15:19;;;;;;;14.85;9.90;;;10.20;99.90;;;;;;5016553;28;20055;-79
2023/04/07 12:17:46;;;;;;;15.05;10.15;;;10.20;99.90;;;;;;5049309;28;20404;-79
2023/04/07 12:20:13;;;;;;;14.30;9.98;;;10.30;99.90;;;;;;5015343;28;20040;-79
2023/04/07 12:22:40;;;;;;;13.98;10.02;;;10.30;99.90;;;;;;5008357;28;20697;-79
2023/04/07 12:25:06;;;;;;;16.02;10.13;;;10.40;99.90;;;;;;5049573;28;20221;-80
2023/04/07 12:27:31;;;;;;;14.00;9.80;;;10.40;99.90;;;;;;5032341;28;20072;-79
2023/04/07 12:29:57;;;;;;;13.30;9.63;;;10.50;99.90;;;;;;5030762;28;20052;-80
2023/04/07 12:32:23;;;;;;;13.68;9.55;;;10.50;99.90;;;;;;5017865;28;20052;-79
2023/04/07 12:34:49;;;;;;;12.32;8.48;;;10.60;99.90;;;;;;5037565;28;20049;-79
2023/04/07 12:37:15;;;;;;;11.98;8.65;;;10.60;99.90;;;;;;5020304;28;20049;-79
2023/04/07 12:39:40;;;;;;;11.88;8.45;;;10.70;99.90;;;;;;5026915;28;20053;-79
2023/04/07 12:42:10;;;;;;;13.20;9.07;;;10.70;99.90;;;;;;5048557;28;20040;-79